sensor_id;sensor_type;location;lat;lon;timestamp;temperature;humidity
19385;DHT22;9828;54.122;17.974;2023-05-10T00:02:50;10.50;99.90
19385;DHT22;9828;54.122;17.974;2023-05-10T00:08:12;10.60;99.90
19385;DHT22;9828;54.122;17.974;2023-05-10T00:13:33;10.50;1.00
19385;DHT22;9828;54.122;17.974;2023-05-10T00:18:54;10.50;99.90
19385;DHT22;9828;54.122;17.974;2023-05-10T00:24:15;10.40;99.90
19385;DHT22;9828;54.122;17.974;2023-05-10T00:29:37;10.50;1.00
19385;DHT22;9828;54.122;17.974;2023-05-10T00:34:58;10.30;1.00
19385;DHT22;9828;54.122;17.974;2023-05-10T00:40:19;10.20;99.90
19385;DHT22;9828;54.122;17.974;2023-05-10T00:45:47;10.10;99.90
19385;DHT22;9828;54.122;17.974;2023-05-10T00:51:08;10.00;99.90
19385;DHT22;9828;54.122;17.974;2023-05-10T00:56:29;10.00;99.90
19385;DHT22;9828;54.122;17.974;2023-05-10T01:01:52;10.00;99.90
19385;DHT22;9828;54.122;17.974;2023-05-10T01:07:13;10.00;99.90
19385;DHT22;9828;54.122;17.974;2023-05-10T01:12:38;9.90;99.90
19385;DHT22;9828;54.122;17.974;2023-05-10T01:18:01;9.80;99.90
19385;DHT22;9828;54.122;17.974;2023-05-10T01:23:36;9.80;99.90
19385;DHT22;9828;54.122;17.974;2023-05-10T01:40:21;9.60;99.90
19385;DHT22;9828;54.122;17.974;2023-05-10T01:45:53;9.60;99.90
19385;DHT22;9828;54.122;17.974;2023-05-10T01:51:24;9.50;99.90
19385;DHT22;9828;54.122;17.974;2023-05-10T01:56:50;9.40;99.90
19385;DHT22;9828;54.122;17.974;2023-05-10T02:02:15;9.40;99.90
19385;DHT22;9828;54.122;17.974;2023-05-10T02:07:37;9.40;99.90
19385;DHT22;9828;54.122;17.974;2023-05-10T02:13:02;9.40;99.90
19385;DHT22;9828;54.122;17.974;2023-05-10T02:18:24;9.30;99.90
19385;DHT22;9828;54.122;17.974;2023-05-10T02:23:46;9.30;99.90
19385;DHT22;9828;54.122;17.974;2023-05-10T02:33:46;9.30;99.90
19385;DHT22;9828;54.122;17.974;2023-05-10T02:39:11;9.30;99.90
19385;DHT22;9828;54.122;17.974;2023-05-10T02:44:36;9.20;99.90
19385;DHT22;9828;54.122;17.974;2023-05-10T02:49:58;9.20;99.90
19385;DHT22;9828;54.122;17.974;2023-05-10T02:55:22;9.10;99.90
19385;DHT22;9828;54.122;17.974;2023-05-10T03:00:43;9.10;99.90
19385;DHT22;9828;54.122;17.974;2023-05-10T03:06:05;9.00;99.90
19385;DHT22;9828;54.122;17.974;2023-05-10T03:23:22;9.00;99.90
19385;DHT22;9828;54.122;17.974;2023-05-10T03:28:48;9.00;99.90
19385;DHT22;9828;54.122;17.974;2023-05-10T03:34:09;9.00;99.90
19385;DHT22;9828;54.122;17.974;2023-05-10T03:39:31;9.00;99.90
19385;DHT22;9828;54.122;17.974;2023-05-10T03:44:54;8.90;99.90
19385;DHT22;9828;54.122;17.974;2023-05-10T03:50:16;8.90;99.90
19385;DHT22;9828;54.122;17.974;2023-05-10T03:55:37;9.00;99.90
19385;DHT22;9828;54.122;17.974;2023-05-10T04:00:58;8.90;99.90
19385;DHT22;9828;54.122;17.974;2023-05-10T04:06:20;8.90;99.90
19385;DHT22;9828;54.122;17.974;2023-05-10T04:11:41;8.90;99.90
19385;DHT22;9828;54.122;17.974;2023-05-10T04:17:02;8.90;99.90
19385;DHT22;9828;54.122;17.974;2023-05-10T04:22:23;8.90;99.90
19385;DHT22;9828;54.122;17.974;2023-05-10T04:27:44;9.00;99.90
19385;DHT22;9828;54.122;17.974;2023-05-10T04:33:06;9.10;99.90
19385;DHT22;9828;54.122;17.974;2023-05-10T04:38:28;9.30;99.90
19385;DHT22;9828;54.122;17.974;2023-05-10T04:43:49;9.40;99.90
19385;DHT22;9828;54.122;17.974;2023-05-10T04:49:10;9.50;99.90
19385;DHT22;9828;54.122;17.974;2023-05-10T04:54:31;9.40;99.90
19385;DHT22;9828;54.122;17.974;2023-05-10T04:59:52;9.50;99.90
19385;DHT22;9828;54.122;17.974;2023-05-10T05:05:14;9.60;99.90
19385;DHT22;9828;54.122;17.974;2023-05-10T05:10:35;9.70;99.90
19385;DHT22;9828;54.122;17.974;2023-05-10T05:15:56;9.90;99.90
19385;DHT22;9828;54.122;17.974;2023-05-10T05:21:18;10.00;99.90
19385;DHT22;9828;54.122;17.974;2023-05-10T05:26:40;10.10;99.90
19385;DHT22;9828;54.122;17.974;2023-05-10T05:32:01;10.20;99.90
19385;DHT22;9828;54.122;17.974;2023-05-10T05:37:22;10.40;99.90
19385;DHT22;9828;54.122;17.974;2023-05-10T05:42:43;10.50;99.90
19385;DHT22;9828;54.122;17.974;2023-05-10T05:48:04;10.70;99.90
19385;DHT22;9828;54.122;17.974;2023-05-10T05:53:25;11.00;99.90
19385;DHT22;9828;54.122;17.974;2023-05-10T05:58:46;11.20;99.90
19385;DHT22;9828;54.122;17.974;2023-05-10T06:04:08;11.50;99.90
19385;DHT22;9828;54.122;17.974;2023-05-10T06:09:29;11.90;99.90
19385;DHT22;9828;54.122;17.974;2023-05-10T06:14:50;12.30;99.90
19385;DHT22;9828;54.122;17.974;2023-05-10T06:20:12;12.70;99.90
19385;DHT22;9828;54.122;17.974;2023-05-10T06:25:33;13.10;99.90
19385;DHT22;9828;54.122;17.974;2023-05-10T06:30:54;13.60;99.90
19385;DHT22;9828;54.122;17.974;2023-05-10T06:36:15;14.40;99.90
19385;DHT22;9828;54.122;17.974;2023-05-10T06:41:37;14.90;99.90
19385;DHT22;9828;54.122;17.974;2023-05-10T06:46:58;15.30;99.90
19385;DHT22;9828;54.122;17.974;2023-05-10T06:52:19;15.90;99.90
19385;DHT22;9828;54.122;17.974;2023-05-10T06:57:40;16.50;99.90
19385;DHT22;9828;54.122;17.974;2023-05-10T07:03:01;16.80;99.90
19385;DHT22;9828;54.122;17.974;2023-05-10T07:08:22;17.00;99.90
19385;DHT22;9828;54.122;17.974;2023-05-10T07:13:43;17.60;99.90
19385;DHT22;9828;54.122;17.974;2023-05-10T07:19:06;18.20;99.90
19385;DHT22;9828;54.122;17.974;2023-05-10T07:24:28;18.30;99.90
19385;DHT22;9828;54.122;17.974;2023-05-10T07:29:49;18.10;99.90
19385;DHT22;9828;54.122;17.974;2023-05-10T07:35:11;18.40;99.90
19385;DHT22;9828;54.122;17.974;2023-05-10T07:40:32;18.40;99.90
19385;DHT22;9828;54.122;17.974;2023-05-10T07:45:53;18.70;99.90
19385;DHT22;9828;54.122;17.974;2023-05-10T07:51:16;18.70;99.90
19385;DHT22;9828;54.122;17.974;2023-05-10T07:56:38;19.20;99.90
19385;DHT22;9828;54.122;17.974;2023-05-10T08:02:00;19.90;99.90
19385;DHT22;9828;54.122;17.974;2023-05-10T08:07:21;19.80;99.90
19385;DHT22;9828;54.122;17.974;2023-05-10T08:12:43;19.90;99.90
19385;DHT22;9828;54.122;17.974;2023-05-10T08:18:04;20.50;99.90
19385;DHT22;9828;54.122;17.974;2023-05-10T08:23:26;20.70;99.90
19385;DHT22;9828;54.122;17.974;2023-05-10T08:28:47;21.00;99.90
19385;DHT22;9828;54.122;17.974;2023-05-10T08:34:08;20.80;99.90
19385;DHT22;9828;54.122;17.974;2023-05-10T08:39:29;20.70;99.90
19385;DHT22;9828;54.122;17.974;2023-05-10T08:44:51;20.90;99.90
19385;DHT22;9828;54.122;17.974;2023-05-10T08:50:14;20.80;99.90
19385;DHT22;9828;54.122;17.974;2023-05-10T08:55:36;20.80;99.90
19385;DHT22;9828;54.122;17.974;2023-05-10T09:01:00;21.50;99.90
19385;DHT22;9828;54.122;17.974;2023-05-10T09:06:22;21.70;99.90
19385;DHT22;9828;54.122;17.974;2023-05-10T09:11:43;21.90;99.90
19385;DHT22;9828;54.122;17.974;2023-05-10T09:17:05;22.60;99.90
19385;DHT22;9828;54.122;17.974;2023-05-10T09:22:27;22.70;99.90
19385;DHT22;9828;54.122;17.974;2023-05-10T09:27:49;22.50;99.90
19385;DHT22;9828;54.122;17.974;2023-05-10T09:33:10;22.60;99.90
19385;DHT22;9828;54.122;17.974;2023-05-10T09:38:48;22.70;99.90
19385;DHT22;9828;54.122;17.974;2023-05-10T09:44:09;22.10;99.90
19385;DHT22;9828;54.122;17.974;2023-05-10T09:49:30;22.00;99.90
19385;DHT22;9828;54.122;17.974;2023-05-10T09:54:54;22.20;99.90
19385;DHT22;9828;54.122;17.974;2023-05-10T10:00:19;21.90;99.90
19385;DHT22;9828;54.122;17.974;2023-05-10T10:05:43;22.50;99.90
19385;DHT22;9828;54.122;17.974;2023-05-10T10:11:04;22.70;99.90
19385;DHT22;9828;54.122;17.974;2023-05-10T10:16:30;23.60;99.90
19385;DHT22;9828;54.122;17.974;2023-05-10T10:21:52;23.50;99.90
19385;DHT22;9828;54.122;17.974;2023-05-10T10:27:21;23.30;99.90
19385;DHT22;9828;54.122;17.974;2023-05-10T10:44:22;22.50;99.90
19385;DHT22;9828;54.122;17.974;2023-05-10T10:49:50;22.40;99.90
19385;DHT22;9828;54.122;17.974;2023-05-10T10:55:18;22.40;99.90
19385;DHT22;9828;54.122;17.974;2023-05-10T11:00:39;22.10;99.90
19385;DHT22;9828;54.122;17.974;2023-05-10T11:06:01;22.40;99.90
19385;DHT22;9828;54.122;17.974;2023-05-10T11:11:23;22.70;99.90
19385;DHT22;9828;54.122;17.974;2023-05-10T11:16:44;22.70;99.90
19385;DHT22;9828;54.122;17.974;2023-05-10T11:27:26;23.30;99.90
19385;DHT22;9828;54.122;17.974;2023-05-10T11:32:47;23.20;99.90
19385;DHT22;9828;54.122;17.974;2023-05-10T11:38:10;22.80;99.90
19385;DHT22;9828;54.122;17.974;2023-05-10T11:43:32;23.10;99.90
19385;DHT22;9828;54.122;17.974;2023-05-10T11:48:57;23.10;99.90
19385;DHT22;9828;54.122;17.974;2023-05-10T11:54:21;23.20;99.90
19385;DHT22;9828;54.122;17.974;2023-05-10T11:59:43;22.70;99.90
19385;DHT22;9828;54.122;17.974;2023-05-10T12:05:05;22.70;99.90
19385;DHT22;9828;54.122;17.974;2023-05-10T12:10:27;22.50;99.90
19385;DHT22;9828;54.122;17.974;2023-05-10T12:15:48;22.50;99.90
19385;DHT22;9828;54.122;17.974;2023-05-10T12:21:11;22.80;99.90
19385;DHT22;9828;54.122;17.974;2023-05-10T12:26:32;22.30;99.90
19385;DHT22;9828;54.122;17.974;2023-05-10T12:31:59;22.00;99.90
19385;DHT22;9828;54.122;17.974;2023-05-10T12:37:24;22.30;99.90
19385;DHT22;9828;54.122;17.974;2023-05-10T12:42:48;22.40;99.90
19385;DHT22;9828;54.122;17.974;2023-05-10T12:48:09;22.50;99.90
19385;DHT22;9828;54.122;17.974;2023-05-10T12:53:31;22.60;99.90
19385;DHT22;9828;54.122;17.974;2023-05-10T12:58:52;22.50;99.90
19385;DHT22;9828;54.122;17.974;2023-05-10T13:04:13;22.30;99.90
19385;DHT22;9828;54.122;17.974;2023-05-10T13:09:34;22.50;99.90
19385;DHT22;9828;54.122;17.974;2023-05-10T13:14:55;22.20;99.90
19385;DHT22;9828;54.122;17.974;2023-05-10T13:20:17;21.90;99.90
19385;DHT22;9828;54.122;17.974;2023-05-10T13:25:39;21.60;99.90
19385;DHT22;9828;54.122;17.974;2023-05-10T13:31:00;21.60;99.90
19385;DHT22;9828;54.122;17.974;2023-05-10T13:36:21;21.90;99.90
19385;DHT22;9828;54.122;17.974;2023-05-10T13:41:43;21.60;99.90
19385;DHT22;9828;54.122;17.974;2023-05-10T13:47:05;21.50;99.90
19385;DHT22;9828;54.122;17.974;2023-05-10T13:52:26;21.30;99.90
19385;DHT22;9828;54.122;17.974;2023-05-10T13:57:47;21.20;99.90
19385;DHT22;9828;54.122;17.974;2023-05-10T14:03:09;20.90;99.90
19385;DHT22;9828;54.122;17.974;2023-05-10T14:08:31;20.40;99.90
19385;DHT22;9828;54.122;17.974;2023-05-10T14:13:52;20.40;99.90
19385;DHT22;9828;54.122;17.974;2023-05-10T14:19:13;20.60;99.90
19385;DHT22;9828;54.122;17.974;2023-05-10T14:24:34;20.50;99.90
19385;DHT22;9828;54.122;17.974;2023-05-10T14:29:56;20.20;99.90
19385;DHT22;9828;54.122;17.974;2023-05-10T14:35:17;20.10;99.90
19385;DHT22;9828;54.122;17.974;2023-05-10T14:40:39;20.10;99.90
19385;DHT22;9828;54.122;17.974;2023-05-10T14:46:00;20.30;99.90
19385;DHT22;9828;54.122;17.974;2023-05-10T14:51:21;20.20;99.90
19385;DHT22;9828;54.122;17.974;2023-05-10T14:56:43;20.00;99.90
19385;DHT22;9828;54.122;17.974;2023-05-10T15:02:04;19.80;99.90
19385;DHT22;9828;54.122;17.974;2023-05-10T15:07:25;19.70;99.90
19385;DHT22;9828;54.122;17.974;2023-05-10T15:12:46;19.80;99.90
19385;DHT22;9828;54.122;17.974;2023-05-10T15:18:09;19.70;99.90
19385;DHT22;9828;54.122;17.974;2023-05-10T15:23:30;19.80;99.90
19385;DHT22;9828;54.122;17.974;2023-05-10T15:28:51;19.70;99.90
19385;DHT22;9828;54.122;17.974;2023-05-10T15:34:13;19.50;99.90
19385;DHT22;9828;54.122;17.974;2023-05-10T15:39:34;19.50;99.90
19385;DHT22;9828;54.122;17.974;2023-05-10T15:44:55;19.50;99.90
19385;DHT22;9828;54.122;17.974;2023-05-10T15:50:17;19.40;99.90
19385;DHT22;9828;54.122;17.974;2023-05-10T15:55:38;19.20;99.90
19385;DHT22;9828;54.122;17.974;2023-05-10T16:00:59;19.10;99.90
19385;DHT22;9828;54.122;17.974;2023-05-10T16:06:20;19.10;99.90
19385;DHT22;9828;54.122;17.974;2023-05-10T16:11:44;19.00;99.90
19385;DHT22;9828;54.122;17.974;2023-05-10T16:17:06;19.00;99.90
19385;DHT22;9828;54.122;17.974;2023-05-10T16:22:27;18.80;99.90
19385;DHT22;9828;54.122;17.974;2023-05-10T16:27:49;18.80;99.90
19385;DHT22;9828;54.122;17.974;2023-05-10T16:33:10;18.70;99.90
19385;DHT22;9828;54.122;17.974;2023-05-10T16:38:31;18.60;99.90
19385;DHT22;9828;54.122;17.974;2023-05-10T16:43:53;18.50;99.90
19385;DHT22;9828;54.122;17.974;2023-05-10T16:49:14;18.50;99.90
19385;DHT22;9828;54.122;17.974;2023-05-10T16:54:35;18.50;99.90
19385;DHT22;9828;54.122;17.974;2023-05-10T16:59:56;18.50;99.90
19385;DHT22;9828;54.122;17.974;2023-05-10T17:05:17;18.40;99.90
19385;DHT22;9828;54.122;17.974;2023-05-10T17:10:39;18.30;99.90
19385;DHT22;9828;54.122;17.974;2023-05-10T17:16:01;18.10;99.90
19385;DHT22;9828;54.122;17.974;2023-05-10T17:21:25;18.00;99.90
19385;DHT22;9828;54.122;17.974;2023-05-10T17:26:47;17.90;99.90
19385;DHT22;9828;54.122;17.974;2023-05-10T17:32:08;17.80;99.90
19385;DHT22;9828;54.122;17.974;2023-05-10T17:37:30;17.60;99.90
19385;DHT22;9828;54.122;17.974;2023-05-10T17:42:52;17.50;99.90
19385;DHT22;9828;54.122;17.974;2023-05-10T17:48:14;17.50;99.90
19385;DHT22;9828;54.122;17.974;2023-05-10T17:53:35;17.40;99.90
19385;DHT22;9828;54.122;17.974;2023-05-10T17:58:56;17.30;99.90
19385;DHT22;9828;54.122;17.974;2023-05-10T18:04:18;17.30;99.90
19385;DHT22;9828;54.122;17.974;2023-05-10T18:09:39;17.10;99.90
19385;DHT22;9828;54.122;17.974;2023-05-10T18:15:01;17.00;99.90
19385;DHT22;9828;54.122;17.974;2023-05-10T18:20:22;16.80;99.90
19385;DHT22;9828;54.122;17.974;2023-05-10T18:25:43;16.70;99.90
19385;DHT22;9828;54.122;17.974;2023-05-10T18:31:05;16.60;99.90
19385;DHT22;9828;54.122;17.974;2023-05-10T18:36:26;16.50;99.90
19385;DHT22;9828;54.122;17.974;2023-05-10T18:41:48;16.40;99.90
19385;DHT22;9828;54.122;17.974;2023-05-10T18:47:10;16.20;99.90
19385;DHT22;9828;54.122;17.974;2023-05-10T18:52:33;16.10;99.90
19385;DHT22;9828;54.122;17.974;2023-05-10T18:57:54;16.00;99.90
19385;DHT22;9828;54.122;17.974;2023-05-10T19:03:15;15.80;99.90
19385;DHT22;9828;54.122;17.974;2023-05-10T19:08:37;15.70;99.90
19385;DHT22;9828;54.122;17.974;2023-05-10T19:13:59;15.60;99.90
19385;DHT22;9828;54.122;17.974;2023-05-10T19:19:21;15.50;99.90
19385;DHT22;9828;54.122;17.974;2023-05-10T19:24:42;15.40;99.90
19385;DHT22;9828;54.122;17.974;2023-05-10T19:30:05;15.30;99.90
19385;DHT22;9828;54.122;17.974;2023-05-10T19:35:26;15.20;99.90
19385;DHT22;9828;54.122;17.974;2023-05-10T19:40:48;15.20;99.90
19385;DHT22;9828;54.122;17.974;2023-05-10T19:46:10;15.10;99.90
19385;DHT22;9828;54.122;17.974;2023-05-10T19:51:32;15.00;99.90
19385;DHT22;9828;54.122;17.974;2023-05-10T19:56:53;15.00;99.90
19385;DHT22;9828;54.122;17.974;2023-05-10T20:02:14;14.90;99.90
19385;DHT22;9828;54.122;17.974;2023-05-10T20:07:35;14.70;99.90
19385;DHT22;9828;54.122;17.974;2023-05-10T20:12:56;14.60;99.90
19385;DHT22;9828;54.122;17.974;2023-05-10T20:18:18;14.60;99.90
19385;DHT22;9828;54.122;17.974;2023-05-10T20:23:40;14.60;99.90
19385;DHT22;9828;54.122;17.974;2023-05-10T20:29:01;14.50;99.90
19385;DHT22;9828;54.122;17.974;2023-05-10T20:34:22;14.30;99.90
19385;DHT22;9828;54.122;17.974;2023-05-10T20:39:43;14.20;99.90
19385;DHT22;9828;54.122;17.974;2023-05-10T20:45:04;14.10;99.90
19385;DHT22;9828;54.122;17.974;2023-05-10T20:50:26;14.10;99.90
19385;DHT22;9828;54.122;17.974;2023-05-10T20:55:47;14.00;99.90
19385;DHT22;9828;54.122;17.974;2023-05-10T21:01:08;13.90;99.90
19385;DHT22;9828;54.122;17.974;2023-05-10T21:06:29;13.80;99.90
19385;DHT22;9828;54.122;17.974;2023-05-10T21:11:52;13.80;99.90
19385;DHT22;9828;54.122;17.974;2023-05-10T21:17:13;13.70;99.90
19385;DHT22;9828;54.122;17.974;2023-05-10T21:33:17;13.70;1.00
19385;DHT22;9828;54.122;17.974;2023-05-10T21:38:38;13.70;1.00
19385;DHT22;9828;54.122;17.974;2023-05-10T21:43:59;13.60;1.00
19385;DHT22;9828;54.122;17.974;2023-05-10T21:49:20;13.40;99.90
19385;DHT22;9828;54.122;17.974;2023-05-10T21:54:42;13.30;99.90
19385;DHT22;9828;54.122;17.974;2023-05-10T22:00:03;13.20;99.90
19385;DHT22;9828;54.122;17.974;2023-05-10T22:05:25;13.10;99.90
19385;DHT22;9828;54.122;17.974;2023-05-10T22:10:47;13.00;99.90
19385;DHT22;9828;54.122;17.974;2023-05-10T22:16:08;12.90;99.90
19385;DHT22;9828;54.122;17.974;2023-05-10T22:21:29;12.90;99.90
19385;DHT22;9828;54.122;17.974;2023-05-10T22:26:53;12.80;99.90
19385;DHT22;9828;54.122;17.974;2023-05-10T22:32:15;12.70;99.90
19385;DHT22;9828;54.122;17.974;2023-05-10T22:37:35;12.70;99.90
19385;DHT22;9828;54.122;17.974;2023-05-10T22:42:57;12.60;99.90
19385;DHT22;9828;54.122;17.974;2023-05-10T22:48:18;12.60;99.90
19385;DHT22;9828;54.122;17.974;2023-05-10T22:53:40;12.50;99.90
19385;DHT22;9828;54.122;17.974;2023-05-10T22:59:01;12.40;99.90
19385;DHT22;9828;54.122;17.974;2023-05-10T23:04:22;12.40;99.90
19385;DHT22;9828;54.122;17.974;2023-05-10T23:09:43;12.40;99.90
19385;DHT22;9828;54.122;17.974;2023-05-10T23:15:05;12.40;99.90
19385;DHT22;9828;54.122;17.974;2023-05-10T23:20:27;12.40;99.90
19385;DHT22;9828;54.122;17.974;2023-05-10T23:25:48;12.30;99.90
19385;DHT22;9828;54.122;17.974;2023-05-10T23:31:09;12.20;99.90
19385;DHT22;9828;54.122;17.974;2023-05-10T23:36:31;12.10;99.90
19385;DHT22;9828;54.122;17.974;2023-05-10T23:41:53;12.00;99.90
19385;DHT22;9828;54.122;17.974;2023-05-10T23:47:14;12.00;99.90
19385;DHT22;9828;54.122;17.974;2023-05-10T23:52:35;11.90;99.90
19385;DHT22;9828;54.122;17.974;2023-05-10T23:57:56;11.90;99.90
